Aeroporto :
LOGIN :

Iscrizione | Disclaimer

   EN    FR    IT 

 










Sommario :    VFR   VFR Marginale   IFR   IFR Intensivo   IFR Molto Intensivo
Visibilità : 
Base nubi : 
>= 8 km
>= 3000ft
5 / 8 km
1000 / 3000 ft
1500m / 5 km
500 / 1000 ft
800 / 1500m
200 / 500 ft
< 800m
< 200 ft
Simboli :   Temporali  Nebbia  Neve Forte  Precipitazioni Forti  Vento > 20 kt
SIGMETs :   Varie  Temporali  Ghiacco  Turbolenza  Onda orograficha  Ceneri Vulcaniche






- Altitudine del aeroporto : 126 ft
- Codice IATA : WIC


EGPC - Wick

ULTIMO METAR :
  • 311750Z AUTO 13014KT 9999 NCD 12/09 Q1026

METARs OBSOLETI :
  • 311720Z AUTO 13013KT 9999 NCD 13/09 Q1026
  • 311650Z AUTO 13013KT 9999 NCD 13/09 Q1026
  • 311620Z AUTO 13013KT 9999 NCD 14/09 Q1027
  • 311550Z AUTO 13012KT 9999 NCD 14/10 Q1027
  • 311520Z AUTO 14011KT 9999 NCD 14/10 Q1027

TAF TAF EGPC
Valido dal 31 a 15 ore il 01 a 00 ore UTC


311356Z 3115/3124 14009KT CAVOK
ATIS : +44 1955 607 596



MetMap, La meteo Aeronautica in un colpo d'occhio ! - Copyright ORBIFLY Dicembre 2007 - Disclaimer

ORBIFLY MET'MAP TEAM :

Programmazione e sviluppo : Alexandra Zaïnal
Concezione : Baudouin d'Aumeries
Aiuto per la programmazione : Marc-Olivier Méhu
Supporto tecnico e logistico : Manuel Goepfert
Aiuto per la traduzione : Arnaldo La Scala

Contatto : metmap@orbifly.com




FONTI E CREDITI :

   NOAA